createdAt,value
2023-04-30T00:00:36.491Z,68.82
2023-04-30T00:03:24.997Z,68.89
2023-04-30T00:05:53.740Z,68.87
2023-04-30T00:08:21.871Z,70.10
2023-04-30T00:10:49.760Z,70.03
2023-04-30T00:13:19.251Z,69.76
2023-04-30T00:15:47.080Z,69.52
2023-04-30T00:18:15.190Z,68.93
2023-04-30T00:20:42.885Z,69.90
2023-04-30T00:23:11.381Z,69.48
2023-04-30T00:25:39.173Z,69.93
2023-04-30T00:28:07.290Z,70.06
2023-04-30T00:30:35.251Z,69.96
2023-04-30T00:33:03.426Z,70.24
2023-04-30T00:35:31.412Z,70.03
2023-04-30T00:37:59.602Z,69.88
2023-04-30T00:40:27.439Z,69.90
2023-04-30T00:42:56.101Z,69.65
2023-04-30T00:45:23.898Z,69.95
2023-04-30T00:47:52.442Z,69.25
2023-04-30T00:50:20.559Z,68.26
2023-04-30T00:52:49.161Z,68.51
2023-04-30T00:55:17.600Z,68.94
2023-04-30T00:57:47.113Z,69.20
2023-04-30T01:00:15.406Z,68.52
2023-04-30T01:02:44.434Z,69.48
2023-04-30T01:05:12.921Z,69.38
2023-04-30T01:07:46.783Z,69.42
2023-04-30T01:10:15.778Z,67.88
2023-04-30T01:12:56.897Z,67.79
2023-04-30T01:16:03.401Z,68.78
2023-04-30T01:18:42.371Z,69.14
2023-04-30T01:21:10.608Z,68.82
2023-04-30T01:24:13.855Z,68.21
2023-04-30T01:27:29.626Z,68.94
2023-04-30T01:29:58.327Z,69.42
2023-04-30T01:32:27.182Z,70.14
2023-04-30T01:34:55.621Z,70.02
2023-04-30T01:37:38.557Z,69.60
2023-04-30T01:40:41.318Z,69.67
2023-04-30T01:43:20.269Z,69.58
2023-04-30T01:46:02.067Z,70.15
2023-04-30T01:48:40.636Z,70.90
2023-04-30T01:51:17.688Z,70.15
2023-04-30T01:53:46.611Z,71.24
2023-04-30T01:56:30.761Z,70.88
2023-04-30T01:59:00.982Z,69.03
2023-04-30T02:01:32.224Z,68.28
2023-04-30T02:04:00.868Z,70.15
2023-04-30T02:06:30.447Z,71.69
2023-04-30T02:09:04.514Z,73.63
2023-04-30T02:11:33.106Z,75.73
2023-04-30T02:14:00.995Z,75.53
2023-04-30T02:16:29.372Z,76.01
2023-04-30T02:18:57.189Z,75.38
2023-04-30T02:21:25.985Z,74.54
2023-04-30T02:23:54.210Z,73.03
2023-04-30T02:26:22.397Z,72.71
2023-04-30T02:28:50.262Z,72.12
2023-04-30T02:31:18.776Z,72.50
2023-04-30T02:33:47.014Z,71.90
2023-04-30T02:36:15.171Z,72.00
2023-04-30T02:38:42.966Z,73.19
2023-04-30T02:41:11.046Z,73.13
2023-04-30T02:43:38.997Z,74.65
2023-04-30T02:46:07.227Z,76.01
2023-04-30T02:48:35.074Z,76.53
2023-04-30T02:51:04.891Z,76.31
2023-04-30T02:53:32.692Z,75.70
2023-04-30T02:56:00.922Z,75.56
2023-04-30T02:58:28.747Z,75.17
2023-04-30T03:00:57.683Z,74.58
2023-04-30T03:03:25.591Z,74.93
2023-04-30T03:05:57.125Z,74.58
2023-04-30T03:08:25.280Z,74.95
2023-04-30T03:10:53.449Z,73.66
2023-04-30T03:13:21.320Z,74.39
2023-04-30T03:15:49.399Z,73.75
2023-04-30T03:18:17.749Z,74.04
2023-04-30T03:20:46.022Z,74.29
2023-04-30T03:23:14.093Z,76.29
2023-04-30T03:25:42.316Z,76.56
2023-04-30T03:28:10.388Z,76.74
2023-04-30T03:30:38.838Z,75.69
2023-04-30T03:33:06.938Z,75.96
2023-04-30T03:35:35.402Z,76.07
2023-04-30T03:38:03.496Z,75.47
2023-04-30T03:40:31.828Z,75.19
2023-04-30T03:42:59.663Z,74.44
2023-04-30T03:45:27.837Z,74.42
2023-04-30T03:47:55.799Z,73.33
2023-04-30T03:50:24.023Z,73.95
2023-04-30T03:52:51.948Z,73.56
2023-04-30T03:55:20.166Z,73.82
2023-04-30T03:57:47.980Z,73.55
2023-04-30T04:00:16.150Z,73.83
2023-04-30T04:02:49.300Z,72.78
2023-04-30T04:05:17.520Z,72.56
2023-04-30T04:07:46.959Z,71.53
2023-04-30T04:10:15.730Z,71.94
2023-04-30T04:12:44.022Z,71.62
2023-04-30T04:15:12.281Z,72.83
2023-04-30T04:17:40.428Z,72.42
2023-04-30T04:20:10.528Z,72.77
2023-04-30T04:22:39.938Z,73.00
2023-04-30T04:25:10.121Z,72.23
2023-04-30T04:27:38.842Z,72.49
2023-04-30T04:30:07.785Z,72.50
2023-04-30T04:32:46.777Z,72.73
2023-04-30T04:35:16.310Z,73.88
2023-04-30T04:37:44.297Z,74.03
2023-04-30T04:40:12.734Z,74.74
2023-04-30T04:42:41.168Z,75.05
2023-04-30T04:45:10.139Z,74.58
2023-04-30T04:47:38.524Z,75.06
2023-04-30T04:50:07.979Z,75.26
2023-04-30T04:52:36.229Z,75.14
2023-04-30T04:55:05.426Z,75.79
2023-04-30T04:57:33.870Z,75.31
2023-04-30T05:00:02.268Z,75.13
2023-04-30T05:02:30.743Z,74.90
2023-04-30T05:04:59.269Z,74.17
2023-04-30T05:07:27.170Z,74.31
2023-04-30T05:09:56.004Z,72.05
2023-04-30T05:12:24.192Z,71.30
2023-04-30T05:14:52.602Z,70.69
2023-04-30T05:17:20.688Z,70.58
2023-04-30T05:19:50.798Z,71.00
2023-04-30T05:22:18.751Z,69.74
2023-04-30T05:24:47.056Z,70.19
2023-04-30T05:27:15.136Z,70.47
2023-04-30T05:29:43.719Z,69.95
2023-04-30T05:32:11.811Z,70.27
2023-04-30T05:34:40.148Z,69.62
2023-04-30T05:37:08.054Z,69.02
2023-04-30T05:39:36.401Z,69.25
2023-04-30T05:42:04.357Z,69.67
2023-04-30T05:44:32.661Z,69.18
2023-04-30T05:47:00.578Z,69.07
2023-04-30T05:49:28.763Z,68.56
2023-04-30T05:51:56.736Z,69.81
2023-04-30T05:54:25.067Z,69.26
2023-04-30T05:56:52.957Z,68.25
2023-04-30T05:59:21.167Z,68.76
2023-04-30T06:01:49.127Z,68.75
2023-04-30T06:04:17.779Z,67.76
2023-04-30T06:06:46.025Z,67.77
2023-04-30T06:09:14.391Z,69.08
2023-04-30T06:11:42.753Z,69.01
2023-04-30T06:14:11.491Z,68.99
2023-04-30T06:16:39.412Z,67.45
2023-04-30T06:19:07.776Z,67.21
2023-04-30T06:21:35.713Z,66.73
2023-04-30T06:24:04.194Z,67.57
2023-04-30T06:26:32.971Z,66.54
2023-04-30T06:29:01.314Z,66.34
2023-04-30T06:31:29.205Z,65.91
2023-04-30T06:33:57.645Z,65.26
2023-04-30T06:36:25.585Z,65.09
2023-04-30T06:38:53.963Z,64.02
2023-04-30T06:41:22.009Z,64.03
2023-04-30T06:43:50.277Z,63.60
2023-04-30T06:46:18.348Z,63.72
2023-04-30T06:48:46.614Z,64.20
2023-04-30T06:51:14.588Z,64.51
2023-04-30T06:53:43.116Z,65.10
2023-04-30T06:56:11.088Z,65.15
2023-04-30T06:58:39.574Z,64.25
2023-04-30T07:01:07.528Z,63.75
2023-04-30T07:03:36.630Z,63.81
2023-04-30T07:06:04.793Z,63.14
2023-04-30T07:08:33.100Z,63.09
2023-04-30T07:11:00.982Z,62.89
2023-04-30T07:13:29.154Z,62.72
2023-04-30T07:15:57.208Z,62.48
2023-04-30T07:18:25.725Z,62.65
2023-04-30T07:20:53.635Z,61.89
2023-04-30T07:23:22.115Z,61.97
2023-04-30T07:25:50.241Z,61.87
2023-04-30T07:28:18.430Z,60.92
2023-04-30T07:30:46.384Z,61.29
2023-04-30T07:33:14.719Z,61.03
2023-04-30T07:35:42.820Z,60.13
2023-04-30T07:38:11.218Z,59.60
2023-04-30T07:40:39.190Z,58.18
2023-04-30T07:43:07.680Z,58.20
2023-04-30T07:45:36.915Z,57.20
2023-04-30T07:48:05.474Z,57.09
2023-04-30T07:50:37.319Z,55.62
2023-04-30T07:53:09.865Z,54.75
2023-04-30T07:55:37.821Z,54.92
2023-04-30T07:58:06.106Z,54.81
2023-04-30T08:00:34.013Z,54.74
2023-04-30T08:03:02.445Z,55.26
2023-04-30T08:05:30.523Z,55.74
2023-04-30T08:07:58.735Z,55.29
2023-04-30T08:10:27.409Z,56.02
2023-04-30T08:12:55.573Z,55.97
2023-04-30T08:15:23.632Z,55.67
2023-04-30T08:17:52.945Z,55.45
2023-04-30T08:20:23.772Z,55.58
2023-04-30T08:22:52.398Z,55.11
2023-04-30T08:25:20.680Z,54.60
2023-04-30T08:27:49.196Z,53.60
2023-04-30T08:30:17.468Z,54.46
2023-04-30T08:32:46.094Z,54.04
2023-04-30T08:35:14.136Z,53.51
2023-04-30T08:37:42.267Z,53.84
2023-04-30T08:40:12.238Z,53.45
2023-04-30T08:42:54.257Z,54.34
2023-04-30T08:45:22.362Z,53.56
2023-04-30T08:47:50.928Z,53.87
2023-04-30T08:50:18.926Z,53.83
2023-04-30T08:52:47.207Z,54.57
2023-04-30T08:55:15.253Z,54.67
2023-04-30T08:57:43.505Z,54.54
2023-04-30T09:00:11.813Z,54.66
2023-04-30T09:02:42.485Z,54.86
2023-04-30T09:05:12.783Z,53.70
2023-04-30T09:10:25.815Z,53.98
2023-04-30T09:13:05.855Z,52.96
2023-04-30T09:15:35.283Z,51.54
2023-04-30T09:18:11.215Z,50.55
2023-04-30T09:20:55.240Z,49.08
2023-04-30T09:23:24.384Z,48.93
2023-04-30T09:25:52.340Z,49.42
2023-04-30T09:28:28.950Z,48.57
2023-04-30T09:30:57.844Z,49.13
2023-04-30T09:33:26.129Z,48.38
2023-04-30T09:35:54.156Z,48.97
2023-04-30T09:38:33.256Z,47.74
2023-04-30T09:41:02.214Z,48.21
2023-04-30T09:43:31.121Z,47.61
2023-04-30T09:46:00.279Z,46.73
2023-04-30T09:48:29.052Z,46.90
2023-04-30T09:50:57.049Z,46.89
2023-04-30T09:53:27.595Z,46.66
2023-04-30T09:55:59.352Z,46.61
2023-04-30T09:58:29.488Z,46.90
2023-04-30T10:01:00.183Z,46.66
2023-04-30T10:03:29.633Z,46.09
2023-04-30T10:05:57.744Z,46.03
2023-04-30T10:08:34.811Z,46.05
2023-04-30T10:11:03.903Z,45.61
2023-04-30T10:13:48.083Z,45.89
2023-04-30T10:16:25.781Z,44.46
2023-04-30T10:18:56.253Z,44.56
2023-04-30T10:21:27.083Z,44.59
2023-04-30T10:23:55.595Z,43.21
2023-04-30T10:26:25.011Z,42.71
2023-04-30T10:28:55.424Z,41.98
2023-04-30T10:31:24.733Z,42.65
2023-04-30T10:34:17.517Z,41.81
2023-04-30T10:36:54.895Z,41.86
2023-04-30T10:39:27.869Z,41.81
2023-04-30T10:42:04.576Z,41.88
2023-04-30T10:44:37.422Z,41.35
2023-04-30T10:47:06.950Z,42.31
2023-04-30T10:49:35.441Z,41.21
2023-04-30T10:52:05.269Z,40.76
2023-04-30T10:54:37.868Z,41.17
2023-04-30T10:57:20.532Z,41.56
2023-04-30T11:00:14.703Z,41.45
2023-04-30T11:02:45.303Z,40.58
2023-04-30T11:05:15.726Z,40.93
2023-04-30T11:07:51.459Z,40.15
2023-04-30T11:10:25.033Z,39.41
2023-04-30T11:12:55.450Z,38.67
2023-04-30T11:15:32.265Z,39.37
2023-04-30T11:18:00.293Z,38.11
2023-04-30T11:20:28.576Z,37.57
2023-04-30T11:23:22.123Z,36.28
2023-04-30T11:26:01.607Z,35.31
2023-04-30T11:28:31.993Z,34.16
2023-04-30T11:31:01.275Z,34.07
2023-04-30T11:33:31.912Z,34.73
2023-04-30T11:36:02.040Z,35.50
2023-04-30T11:38:34.651Z,35.55
2023-04-30T11:41:04.726Z,35.54
2023-04-30T11:43:34.813Z,34.27
2023-04-30T11:46:14.293Z,34.44
2023-04-30T11:48:45.212Z,34.11
2023-04-30T11:51:18.644Z,34.10
2023-04-30T11:53:51.893Z,34.63
2023-04-30T11:56:25.868Z,33.91
2023-04-30T11:58:56.095Z,34.54
2023-04-30T12:01:28.728Z,34.32
2023-04-30T12:03:57.784Z,33.65
2023-04-30T12:06:28.955Z,34.24
2023-04-30T12:08:59.278Z,34.52
2023-04-30T12:11:32.262Z,34.80
2023-04-30T12:14:14.825Z,34.25
2023-04-30T12:16:52.522Z,35.12
2023-04-30T12:19:25.664Z,34.07
2023-04-30T12:21:55.358Z,33.30
2023-04-30T12:24:27.663Z,32.58
2023-04-30T12:26:56.104Z,32.11
2023-04-30T12:29:25.847Z,33.05
2023-04-30T12:31:54.915Z,33.65
2023-04-30T12:34:27.229Z,32.82
2023-04-30T12:36:58.603Z,32.02
2023-04-30T12:39:33.474Z,31.84
2023-04-30T12:42:02.013Z,31.10
2023-04-30T12:44:30.093Z,30.06
2023-04-30T12:47:01.117Z,30.02
2023-04-30T12:49:30.790Z,29.40
2023-04-30T12:52:09.879Z,29.95
2023-04-30T12:54:39.314Z,30.03
2023-04-30T12:57:12.689Z,30.42
2023-04-30T12:59:56.660Z,30.17
2023-04-30T13:02:27.638Z,30.74
2023-04-30T13:04:55.814Z,31.12
2023-04-30T13:07:25.009Z,31.24
2023-04-30T13:12:21.511Z,31.62
2023-04-30T13:14:49.566Z,31.89
2023-04-30T13:17:18.085Z,31.92
2023-04-30T13:19:46.161Z,31.38
2023-04-30T13:22:14.520Z,30.68
2023-04-30T13:24:42.519Z,31.97
2023-04-30T13:27:11.817Z,31.60
2023-04-30T13:29:39.835Z,32.17
2023-04-30T13:32:08.581Z,32.06
2023-04-30T13:34:36.540Z,32.02
2023-04-30T13:37:04.900Z,32.69
2023-04-30T13:39:32.916Z,32.68
2023-04-30T13:42:01.977Z,32.97
2023-04-30T13:44:33.131Z,32.37
2023-04-30T13:47:03.019Z,32.56
2023-04-30T13:49:31.131Z,33.78
2023-04-30T13:51:59.467Z,32.78
2023-04-30T13:54:27.634Z,32.51
2023-04-30T13:56:56.155Z,31.41
2023-04-30T13:59:24.159Z,31.89
2023-04-30T14:01:52.543Z,31.77
2023-04-30T14:04:20.654Z,31.89
2023-04-30T14:06:49.362Z,31.86
2023-04-30T14:09:18.580Z,32.57
2023-04-30T14:11:47.225Z,32.22
2023-04-30T14:14:15.268Z,32.85
2023-04-30T14:16:45.109Z,33.09
2023-04-30T14:19:13.209Z,33.05
2023-04-30T14:21:41.501Z,33.07
2023-04-30T14:24:10.879Z,32.51
2023-04-30T14:26:43.013Z,32.73
2023-04-30T14:29:10.959Z,32.46
2023-04-30T14:31:39.269Z,33.05
2023-04-30T14:34:07.322Z,31.85
2023-04-30T14:36:37.092Z,31.86
2023-04-30T14:39:05.343Z,31.60
2023-04-30T14:41:37.883Z,31.58
2023-04-30T14:44:05.858Z,31.14
2023-04-30T14:46:35.001Z,31.80
2023-04-30T14:49:04.610Z,31.95
2023-04-30T14:51:33.523Z,31.73
2023-04-30T14:54:02.967Z,31.68
2023-04-30T14:56:31.598Z,32.19
2023-04-30T14:58:59.474Z,32.69
2023-04-30T15:01:28.683Z,33.96
2023-04-30T15:03:56.863Z,33.84
2023-04-30T15:06:25.319Z,34.24
2023-04-30T15:08:53.432Z,34.57
2023-04-30T15:11:21.935Z,34.53
2023-04-30T15:13:50.234Z,34.35
2023-04-30T15:16:18.674Z,35.22
2023-04-30T15:18:47.264Z,35.56
2023-04-30T15:21:15.563Z,36.05
2023-04-30T15:23:44.049Z,35.89
2023-04-30T15:26:12.480Z,35.42
2023-04-30T15:28:40.572Z,35.90
2023-04-30T15:31:09.060Z,35.27
2023-04-30T15:33:42.170Z,35.92
2023-04-30T15:36:11.239Z,36.44
2023-04-30T15:38:39.452Z,36.03
2023-04-30T15:41:07.712Z,36.20
2023-04-30T15:43:35.790Z,36.26
2023-04-30T15:46:04.181Z,36.34
2023-04-30T15:48:32.122Z,36.50
2023-04-30T15:51:00.397Z,36.39
2023-04-30T15:53:28.263Z,36.70
2023-04-30T15:55:57.325Z,37.39
2023-04-30T15:58:25.191Z,37.02
2023-04-30T16:00:53.987Z,37.56
2023-04-30T16:03:21.972Z,37.28
2023-04-30T16:05:50.303Z,37.04
2023-04-30T16:08:18.300Z,37.41
2023-04-30T16:10:47.250Z,38.55
2023-04-30T16:13:15.301Z,38.73
2023-04-30T16:15:43.517Z,38.26
2023-04-30T16:18:11.614Z,38.41
2023-04-30T16:20:42.806Z,39.40
2023-04-30T16:23:10.780Z,39.05
2023-04-30T16:25:39.068Z,39.28
2023-04-30T16:28:06.937Z,39.59
2023-04-30T16:30:35.801Z,40.20
2023-04-30T16:33:04.025Z,40.36
2023-04-30T16:35:32.303Z,40.30
2023-04-30T16:38:00.315Z,40.74
2023-04-30T16:40:28.686Z,40.77
2023-04-30T16:42:56.895Z,40.73
2023-04-30T16:45:25.318Z,40.36
2023-04-30T16:47:53.555Z,41.35
2023-04-30T16:50:22.422Z,40.93
2023-04-30T16:52:50.489Z,41.19
2023-04-30T16:55:18.949Z,41.23
2023-04-30T16:57:46.794Z,41.88
2023-04-30T17:00:16.926Z,42.93
2023-04-30T17:02:53.478Z,42.88
2023-04-30T17:05:22.454Z,42.62
2023-04-30T17:07:50.381Z,43.17
2023-04-30T17:10:19.767Z,43.64
2023-04-30T17:12:47.790Z,43.48
2023-04-30T17:15:16.167Z,43.34
2023-04-30T17:17:44.099Z,43.08
2023-04-30T17:20:12.752Z,43.14
2023-04-30T17:22:40.756Z,43.40
2023-04-30T17:25:09.764Z,43.92
2023-04-30T17:27:37.872Z,43.36
2023-04-30T17:30:07.004Z,43.18
2023-04-30T17:32:34.896Z,43.04
2023-04-30T17:35:06.266Z,43.09
2023-04-30T17:37:35.552Z,42.72
2023-04-30T17:40:05.887Z,42.74
2023-04-30T17:42:34.246Z,42.59
2023-04-30T17:45:02.904Z,42.28
2023-04-30T17:47:31.964Z,42.41
2023-04-30T17:50:00.525Z,42.78
2023-04-30T17:52:28.415Z,42.67
2023-04-30T17:54:57.128Z,42.50
2023-04-30T17:57:25.438Z,42.03
2023-04-30T17:59:54.486Z,42.45
2023-04-30T18:02:22.731Z,42.35
2023-04-30T18:04:51.296Z,42.67
2023-04-30T18:07:20.097Z,43.09
2023-04-30T18:09:48.688Z,43.08
2023-04-30T18:12:17.848Z,42.58
2023-04-30T18:14:46.204Z,42.57
2023-04-30T18:17:15.656Z,42.86
2023-04-30T18:19:46.701Z,43.21
2023-04-30T18:22:14.613Z,42.47
2023-04-30T18:24:43.006Z,42.37
2023-04-30T18:27:12.885Z,42.74
2023-04-30T18:29:43.615Z,42.52
2023-04-30T18:32:13.981Z,42.71
2023-04-30T18:34:42.690Z,42.22
2023-04-30T18:37:11.033Z,43.14
2023-04-30T18:39:39.324Z,43.32
2023-04-30T18:42:07.281Z,43.49
2023-04-30T18:44:35.659Z,42.93
2023-04-30T18:47:05.084Z,43.97
2023-04-30T18:49:33.339Z,43.61
2023-04-30T18:52:01.437Z,44.01
2023-04-30T18:54:29.966Z,43.39
2023-04-30T18:56:58.690Z,43.36
2023-04-30T18:59:29.050Z,43.65
2023-04-30T19:01:57.107Z,43.57
2023-04-30T19:04:25.484Z,43.80
2023-04-30T19:06:55.381Z,44.05
2023-04-30T19:09:24.136Z,44.14
2023-04-30T19:11:55.713Z,44.01
2023-04-30T19:14:24.541Z,44.08
2023-04-30T19:16:52.754Z,44.45
2023-04-30T19:19:21.252Z,44.22
2023-04-30T19:21:49.289Z,44.42
2023-04-30T19:24:17.630Z,44.09
2023-04-30T19:26:45.576Z,43.66
2023-04-30T19:29:13.868Z,44.02
2023-04-30T19:31:42.000Z,43.74
2023-04-30T19:34:11.298Z,43.45
2023-04-30T19:36:40.346Z,44.16
2023-04-30T19:39:10.901Z,43.83
2023-04-30T19:41:39.894Z,43.83
2023-04-30T19:44:08.872Z,44.26
2023-04-30T19:46:37.027Z,44.17
2023-04-30T19:49:05.561Z,44.45
2023-04-30T19:51:33.541Z,43.67
2023-04-30T19:54:01.955Z,44.01
2023-04-30T19:56:31.321Z,43.61
2023-04-30T19:59:00.137Z,43.64
2023-04-30T20:01:28.914Z,44.20
2023-04-30T20:03:58.073Z,44.32
2023-04-30T20:06:27.612Z,44.58
2023-04-30T20:09:00.269Z,44.82
2023-04-30T20:11:29.492Z,44.82
2023-04-30T20:13:58.872Z,44.83
2023-04-30T20:16:27.857Z,44.89
2023-04-30T20:18:58.409Z,45.37
2023-04-30T20:21:27.236Z,45.03
2023-04-30T20:23:55.779Z,45.51
2023-04-30T20:26:26.482Z,45.67
2023-04-30T20:28:55.298Z,45.80
2023-04-30T20:31:23.407Z,45.94
2023-04-30T20:33:52.256Z,45.72
2023-04-30T20:36:21.284Z,45.70
2023-04-30T20:38:49.713Z,46.18
2023-04-30T20:41:17.622Z,45.80
2023-04-30T20:43:46.035Z,45.86
2023-04-30T20:46:14.964Z,46.42
2023-04-30T20:48:43.391Z,45.97
2023-04-30T20:51:11.372Z,46.60
2023-04-30T20:53:39.896Z,46.58
2023-04-30T20:56:08.245Z,46.70
2023-04-30T20:58:37.132Z,46.71
2023-04-30T21:01:05.113Z,46.50
2023-04-30T21:03:33.552Z,46.56
2023-04-30T21:06:01.784Z,46.64
2023-04-30T21:08:30.265Z,46.68
2023-04-30T21:10:58.315Z,46.21
2023-04-30T21:13:26.650Z,46.77
2023-04-30T21:15:55.077Z,47.29
2023-04-30T21:18:26.771Z,46.96
2023-04-30T21:20:56.556Z,46.89
2023-04-30T21:23:24.938Z,47.25
2023-04-30T21:25:54.865Z,47.04
2023-04-30T21:28:23.465Z,47.25
2023-04-30T21:30:51.412Z,46.52
2023-04-30T21:33:20.571Z,47.29
2023-04-30T21:35:48.509Z,46.99
2023-04-30T21:38:16.826Z,47.44
2023-04-30T21:40:44.907Z,47.83
2023-04-30T21:43:13.318Z,47.98
2023-04-30T21:45:42.711Z,48.01
2023-04-30T21:48:11.808Z,48.04
2023-04-30T21:50:40.309Z,47.62
2023-04-30T21:53:08.677Z,48.08
2023-04-30T21:55:36.594Z,48.31
2023-04-30T21:58:04.979Z,48.71
2023-04-30T22:00:33.123Z,48.61
2023-04-30T22:03:01.452Z,49.38
2023-04-30T22:05:29.429Z,49.11
2023-04-30T22:07:57.928Z,49.19
2023-04-30T22:10:25.914Z,49.05
2023-04-30T22:12:54.497Z,48.91
2023-04-30T22:15:22.842Z,48.99
2023-04-30T22:17:51.633Z,48.86
2023-04-30T22:20:19.707Z,49.34
2023-04-30T22:22:47.975Z,49.75
2023-04-30T22:25:16.181Z,49.73
2023-04-30T22:27:45.936Z,50.30
2023-04-30T22:30:14.117Z,49.83
2023-04-30T22:32:42.588Z,49.58
2023-04-30T22:35:11.505Z,50.30
2023-04-30T22:37:39.837Z,49.97
2023-04-30T22:40:08.468Z,50.14
2023-04-30T22:42:37.038Z,51.11
2023-04-30T22:45:05.477Z,51.96
2023-04-30T22:47:35.444Z,52.68
2023-04-30T22:50:04.136Z,53.60
2023-04-30T22:52:33.344Z,53.51
2023-04-30T22:55:02.739Z,53.57
2023-04-30T22:57:31.080Z,53.71
2023-04-30T22:59:59.455Z,52.96
2023-04-30T23:02:29.003Z,53.52
2023-04-30T23:04:57.226Z,52.88
2023-04-30T23:07:25.597Z,52.59
2023-04-30T23:09:54.025Z,51.40
2023-04-30T23:12:22.725Z,51.80
2023-04-30T23:14:51.140Z,51.38
2023-04-30T23:17:19.639Z,51.12
2023-04-30T23:19:47.584Z,50.89
2023-04-30T23:22:17.478Z,51.08
2023-04-30T23:24:45.578Z,51.51
2023-04-30T23:27:13.928Z,51.09
2023-04-30T23:29:43.222Z,50.64
2023-04-30T23:32:11.715Z,50.29
2023-04-30T23:34:39.784Z,50.63
2023-04-30T23:37:08.025Z,51.06
2023-04-30T23:39:36.160Z,51.61
2023-04-30T23:42:04.528Z,51.63
2023-04-30T23:44:32.752Z,50.86
2023-04-30T23:47:01.162Z,51.37
2023-04-30T23:49:29.128Z,51.33
2023-04-30T23:51:57.549Z,50.61
2023-04-30T23:54:25.611Z,50.18
2023-04-30T23:56:53.946Z,51.04
2023-04-30T23:59:26.175Z,51.27
